sensor_id;sensor_type;location;lat;lon;timestamp;P1;durP1;ratioP1;P2;durP2;ratioP2
16979;SDS011;42288;52.182;21.156;2023-08-17T00:01:33;12.73;;;9.60;;
16979;SDS011;42288;52.182;21.156;2023-08-17T00:03:58;11.13;;;9.10;;
16979;SDS011;42288;52.182;21.156;2023-08-17T00:06:24;11.13;;;9.10;;
16979;SDS011;42288;52.182;21.156;2023-08-17T00:08:50;11.40;;;8.83;;
16979;SDS011;42288;52.182;21.156;2023-08-17T00:11:16;13.93;;;8.97;;
16979;SDS011;42288;52.182;21.156;2023-08-17T00:13:42;11.90;;;9.20;;
16979;SDS011;42288;52.182;21.156;2023-08-17T00:16:07;14.00;;;8.90;;
16979;SDS011;42288;52.182;21.156;2023-08-17T00:18:33;12.60;;;8.77;;
16979;SDS011;42288;52.182;21.156;2023-08-17T00:20:59;12.07;;;8.60;;
16979;SDS011;42288;52.182;21.156;2023-08-17T00:23:24;13.83;;;9.07;;
16979;SDS011;42288;52.182;21.156;2023-08-17T00:25:50;16.27;;;10.40;;
16979;SDS011;42288;52.182;21.156;2023-08-17T00:28:15;13.73;;;9.87;;
16979;SDS011;42288;52.182;21.156;2023-08-17T00:30:41;12.60;;;8.97;;
16979;SDS011;42288;52.182;21.156;2023-08-17T00:33:07;14.53;;;9.93;;
16979;SDS011;42288;52.182;21.156;2023-08-17T00:35:32;12.63;;;9.37;;
16979;SDS011;42288;52.182;21.156;2023-08-17T00:37:58;14.83;;;9.17;;
16979;SDS011;42288;52.182;21.156;2023-08-17T00:40:24;11.73;;;9.57;;
16979;SDS011;42288;52.182;21.156;2023-08-17T00:42:50;15.93;;;9.53;;
16979;SDS011;42288;52.182;21.156;2023-08-17T00:45:17;11.73;;;9.60;;
16979;SDS011;42288;52.182;21.156;2023-08-17T00:47:43;14.07;;;9.87;;
16979;SDS011;42288;52.182;21.156;2023-08-17T00:50:08;12.87;;;9.47;;
16979;SDS011;42288;52.182;21.156;2023-08-17T00:52:36;12.23;;;9.90;;
16979;SDS011;42288;52.182;21.156;2023-08-17T00:55:03;13.60;;;9.67;;
16979;SDS011;42288;52.182;21.156;2023-08-17T00:57:30;13.63;;;9.63;;
16979;SDS011;42288;52.182;21.156;2023-08-17T00:59:56;13.53;;;9.53;;
16979;SDS011;42288;52.182;21.156;2023-08-17T01:02:23;13.50;;;9.30;;
16979;SDS011;42288;52.182;21.156;2023-08-17T01:04:49;16.20;;;9.93;;
16979;SDS011;42288;52.182;21.156;2023-08-17T01:07:15;12.37;;;10.07;;
16979;SDS011;42288;52.182;21.156;2023-08-17T01:09:40;12.23;;;10.27;;
16979;SDS011;42288;52.182;21.156;2023-08-17T01:15:05;17.73;;;9.73;;
16979;SDS011;42288;52.182;21.156;2023-08-17T01:20:01;14.93;;;9.70;;
16979;SDS011;42288;52.182;21.156;2023-08-17T01:22:29;14.17;;;9.67;;
16979;SDS011;42288;52.182;21.156;2023-08-17T01:24:55;15.00;;;10.40;;
16979;SDS011;42288;52.182;21.156;2023-08-17T01:27:22;14.10;;;10.47;;
16979;SDS011;42288;52.182;21.156;2023-08-17T01:29:49;13.87;;;9.93;;
16979;SDS011;42288;52.182;21.156;2023-08-17T01:32:17;14.93;;;10.33;;
16979;SDS011;42288;52.182;21.156;2023-08-17T01:34:51;12.40;;;9.77;;
16979;SDS011;42288;52.182;21.156;2023-08-17T01:37:22;13.83;;;10.20;;
16979;SDS011;42288;52.182;21.156;2023-08-17T01:39:56;17.07;;;10.87;;
16979;SDS011;42288;52.182;21.156;2023-08-17T01:42:23;12.97;;;9.77;;
16979;SDS011;42288;52.182;21.156;2023-08-17T01:44:49;13.40;;;9.97;;
16979;SDS011;42288;52.182;21.156;2023-08-17T01:47:15;18.30;;;11.30;;
16979;SDS011;42288;52.182;21.156;2023-08-17T01:49:44;12.57;;;9.87;;
16979;SDS011;42288;52.182;21.156;2023-08-17T01:52:10;14.40;;;10.23;;
16979;SDS011;42288;52.182;21.156;2023-08-17T01:54:36;15.53;;;10.03;;
16979;SDS011;42288;52.182;21.156;2023-08-17T01:57:01;14.73;;;11.67;;
16979;SDS011;42288;52.182;21.156;2023-08-17T01:59:27;14.67;;;10.67;;
16979;SDS011;42288;52.182;21.156;2023-08-17T02:01:52;12.83;;;9.93;;
16979;SDS011;42288;52.182;21.156;2023-08-17T02:04:18;13.07;;;10.47;;
16979;SDS011;42288;52.182;21.156;2023-08-17T02:06:43;13.63;;;10.43;;
16979;SDS011;42288;52.182;21.156;2023-08-17T02:09:09;12.30;;;10.37;;
16979;SDS011;42288;52.182;21.156;2023-08-17T02:11:34;12.93;;;10.83;;
16979;SDS011;42288;52.182;21.156;2023-08-17T02:14:00;12.37;;;10.37;;
16979;SDS011;42288;52.182;21.156;2023-08-17T02:16:25;15.47;;;11.27;;
16979;SDS011;42288;52.182;21.156;2023-08-17T02:18:51;17.43;;;11.73;;
16979;SDS011;42288;52.182;21.156;2023-08-17T02:21:16;16.10;;;11.30;;
16979;SDS011;42288;52.182;21.156;2023-08-17T02:23:42;16.27;;;11.33;;
16979;SDS011;42288;52.182;21.156;2023-08-17T02:26:08;16.57;;;11.20;;
16979;SDS011;42288;52.182;21.156;2023-08-17T02:28:33;16.53;;;11.27;;
16979;SDS011;42288;52.182;21.156;2023-08-17T02:30:59;14.33;;;10.80;;
16979;SDS011;42288;52.182;21.156;2023-08-17T02:33:24;18.37;;;11.20;;
16979;SDS011;42288;52.182;21.156;2023-08-17T02:35:50;13.63;;;10.87;;
16979;SDS011;42288;52.182;21.156;2023-08-17T02:38:17;16.13;;;11.07;;
16979;SDS011;42288;52.182;21.156;2023-08-17T02:40:42;14.23;;;11.20;;
16979;SDS011;42288;52.182;21.156;2023-08-17T02:43:08;12.17;;;10.27;;
16979;SDS011;42288;52.182;21.156;2023-08-17T02:45:34;12.63;;;10.77;;
16979;SDS011;42288;52.182;21.156;2023-08-17T02:48:00;13.20;;;10.27;;
16979;SDS011;42288;52.182;21.156;2023-08-17T02:50:25;15.87;;;11.33;;
16979;SDS011;42288;52.182;21.156;2023-08-17T02:52:51;13.37;;;10.30;;
16979;SDS011;42288;52.182;21.156;2023-08-17T02:55:17;13.60;;;10.90;;
16979;SDS011;42288;52.182;21.156;2023-08-17T02:57:42;15.53;;;10.83;;
16979;SDS011;42288;52.182;21.156;2023-08-17T03:00:08;16.23;;;11.23;;
16979;SDS011;42288;52.182;21.156;2023-08-17T03:02:34;14.77;;;11.30;;
16979;SDS011;42288;52.182;21.156;2023-08-17T03:04:59;15.03;;;10.93;;
16979;SDS011;42288;52.182;21.156;2023-08-17T03:07:25;15.17;;;10.80;;
16979;SDS011;42288;52.182;21.156;2023-08-17T03:09:50;15.10;;;11.27;;
16979;SDS011;42288;52.182;21.156;2023-08-17T03:12:16;17.43;;;10.53;;
16979;SDS011;42288;52.182;21.156;2023-08-17T03:14:42;13.40;;;10.57;;
16979;SDS011;42288;52.182;21.156;2023-08-17T03:17:07;15.33;;;11.40;;
16979;SDS011;42288;52.182;21.156;2023-08-17T03:19:33;12.57;;;10.23;;
16979;SDS011;42288;52.182;21.156;2023-08-17T03:21:58;12.63;;;10.93;;
16979;SDS011;42288;52.182;21.156;2023-08-17T03:24:24;12.13;;;10.63;;
16979;SDS011;42288;52.182;21.156;2023-08-17T03:26:49;13.90;;;11.00;;
16979;SDS011;42288;52.182;21.156;2023-08-17T03:29:15;14.07;;;10.47;;
16979;SDS011;42288;52.182;21.156;2023-08-17T03:31:40;47.47;;;11.87;;
16979;SDS011;42288;52.182;21.156;2023-08-17T03:34:06;25.13;;;11.83;;
16979;SDS011;42288;52.182;21.156;2023-08-17T03:36:31;20.80;;;11.67;;
16979;SDS011;42288;52.182;21.156;2023-08-17T03:38:57;13.13;;;10.63;;
16979;SDS011;42288;52.182;21.156;2023-08-17T03:41:22;13.40;;;9.57;;
16979;SDS011;42288;52.182;21.156;2023-08-17T03:43:49;15.70;;;10.80;;
16979;SDS011;42288;52.182;21.156;2023-08-17T03:46:14;16.00;;;10.83;;
16979;SDS011;42288;52.182;21.156;2023-08-17T03:48:40;13.93;;;11.13;;
16979;SDS011;42288;52.182;21.156;2023-08-17T03:51:05;14.80;;;11.67;;
16979;SDS011;42288;52.182;21.156;2023-08-17T03:53:31;13.60;;;10.73;;
16979;SDS011;42288;52.182;21.156;2023-08-17T03:55:56;15.47;;;10.70;;
16979;SDS011;42288;52.182;21.156;2023-08-17T03:58:22;17.20;;;11.00;;
16979;SDS011;42288;52.182;21.156;2023-08-17T04:00:51;14.83;;;11.50;;
16979;SDS011;42288;52.182;21.156;2023-08-17T04:03:17;15.73;;;11.40;;
16979;SDS011;42288;52.182;21.156;2023-08-17T04:05:44;15.43;;;11.03;;
16979;SDS011;42288;52.182;21.156;2023-08-17T04:08:09;15.47;;;11.10;;
16979;SDS011;42288;52.182;21.156;2023-08-17T04:10:35;12.23;;;10.30;;
16979;SDS011;42288;52.182;21.156;2023-08-17T04:13:00;14.53;;;11.23;;
16979;SDS011;42288;52.182;21.156;2023-08-17T04:15:26;14.93;;;11.13;;
16979;SDS011;42288;52.182;21.156;2023-08-17T04:17:51;14.57;;;11.17;;
16979;SDS011;42288;52.182;21.156;2023-08-17T04:20:17;15.27;;;11.03;;
16979;SDS011;42288;52.182;21.156;2023-08-17T04:22:43;15.63;;;10.73;;
16979;SDS011;42288;52.182;21.156;2023-08-17T04:25:09;15.77;;;10.70;;
16979;SDS011;42288;52.182;21.156;2023-08-17T04:27:35;16.27;;;10.33;;
16979;SDS011;42288;52.182;21.156;2023-08-17T04:30:00;13.77;;;10.33;;
16979;SDS011;42288;52.182;21.156;2023-08-17T04:32:26;12.60;;;10.20;;
16979;SDS011;42288;52.182;21.156;2023-08-17T04:34:51;15.30;;;10.13;;
16979;SDS011;42288;52.182;21.156;2023-08-17T04:37:17;14.47;;;10.60;;
16979;SDS011;42288;52.182;21.156;2023-08-17T04:39:42;15.50;;;10.70;;
16979;SDS011;42288;52.182;21.156;2023-08-17T04:42:08;12.13;;;10.03;;
16979;SDS011;42288;52.182;21.156;2023-08-17T04:44:34;16.47;;;10.63;;
16979;SDS011;42288;52.182;21.156;2023-08-17T04:47:00;14.10;;;10.63;;
16979;SDS011;42288;52.182;21.156;2023-08-17T04:49:25;15.23;;;10.20;;
16979;SDS011;42288;52.182;21.156;2023-08-17T04:51:51;13.60;;;10.90;;
16979;SDS011;42288;52.182;21.156;2023-08-17T04:54:17;14.07;;;9.87;;
16979;SDS011;42288;52.182;21.156;2023-08-17T04:56:43;18.53;;;11.07;;
16979;SDS011;42288;52.182;21.156;2023-08-17T04:59:08;19.07;;;10.70;;
16979;SDS011;42288;52.182;21.156;2023-08-17T05:01:34;12.40;;;10.50;;
16979;SDS011;42288;52.182;21.156;2023-08-17T05:04:00;15.03;;;10.83;;
16979;SDS011;42288;52.182;21.156;2023-08-17T05:06:27;15.85;;;10.15;;
16979;SDS011;42288;52.182;21.156;2023-08-17T05:08:53;15.67;;;10.43;;
16979;SDS011;42288;52.182;21.156;2023-08-17T05:11:19;16.50;;;10.37;;
16979;SDS011;42288;52.182;21.156;2023-08-17T05:13:44;15.77;;;10.13;;
16979;SDS011;42288;52.182;21.156;2023-08-17T05:16:10;12.90;;;9.87;;
16979;SDS011;42288;52.182;21.156;2023-08-17T05:18:36;13.87;;;9.77;;
16979;SDS011;42288;52.182;21.156;2023-08-17T05:21:01;12.27;;;9.10;;
16979;SDS011;42288;52.182;21.156;2023-08-17T05:23:27;14.90;;;8.37;;
16979;SDS011;42288;52.182;21.156;2023-08-17T05:25:52;13.03;;;9.10;;
16979;SDS011;42288;52.182;21.156;2023-08-17T05:28:18;15.00;;;10.00;;
16979;SDS011;42288;52.182;21.156;2023-08-17T05:30:44;17.37;;;9.40;;
16979;SDS011;42288;52.182;21.156;2023-08-17T05:33:09;17.93;;;9.47;;
16979;SDS011;42288;52.182;21.156;2023-08-17T05:35:35;13.10;;;9.70;;
16979;SDS011;42288;52.182;21.156;2023-08-17T05:38:00;12.80;;;9.50;;
16979;SDS011;42288;52.182;21.156;2023-08-17T05:40:26;13.63;;;9.10;;
16979;SDS011;42288;52.182;21.156;2023-08-17T05:42:54;14.03;;;9.00;;
16979;SDS011;42288;52.182;21.156;2023-08-17T05:45:19;12.87;;;8.30;;
16979;SDS011;42288;52.182;21.156;2023-08-17T05:47:45;15.17;;;8.43;;
16979;SDS011;42288;52.182;21.156;2023-08-17T05:50:10;14.33;;;8.23;;
16979;SDS011;42288;52.182;21.156;2023-08-17T05:52:36;12.97;;;8.27;;
16979;SDS011;42288;52.182;21.156;2023-08-17T05:55:01;12.13;;;8.10;;
16979;SDS011;42288;52.182;21.156;2023-08-17T05:57:27;10.50;;;7.88;;
16979;SDS011;42288;52.182;21.156;2023-08-17T05:59:53;11.13;;;7.53;;
16979;SDS011;42288;52.182;21.156;2023-08-17T06:02:18;15.23;;;7.90;;
16979;SDS011;42288;52.182;21.156;2023-08-17T06:04:44;14.18;;;7.88;;
16979;SDS011;42288;52.182;21.156;2023-08-17T06:07:09;13.50;;;7.30;;
16979;SDS011;42288;52.182;21.156;2023-08-17T06:09:35;15.38;;;7.80;;
16979;SDS011;42288;52.182;21.156;2023-08-17T06:12:00;15.35;;;8.32;;
16979;SDS011;42288;52.182;21.156;2023-08-17T06:14:26;12.18;;;7.55;;
16979;SDS011;42288;52.182;21.156;2023-08-17T06:16:51;11.10;;;7.27;;
16979;SDS011;42288;52.182;21.156;2023-08-17T06:19:17;10.98;;;7.30;;
16979;SDS011;42288;52.182;21.156;2023-08-17T06:21:42;14.03;;;7.83;;
16979;SDS011;42288;52.182;21.156;2023-08-17T06:24:08;13.23;;;8.18;;
16979;SDS011;42288;52.182;21.156;2023-08-17T06:26:33;16.80;;;8.07;;
16979;SDS011;42288;52.182;21.156;2023-08-17T06:28:59;14.68;;;8.95;;
16979;SDS011;42288;52.182;21.156;2023-08-17T06:31:25;10.43;;;7.53;;
16979;SDS011;42288;52.182;21.156;2023-08-17T06:33:53;12.97;;;8.13;;
16979;SDS011;42288;52.182;21.156;2023-08-17T06:36:19;11.52;;;8.20;;
16979;SDS011;42288;52.182;21.156;2023-08-17T06:38:44;14.80;;;8.10;;
16979;SDS011;42288;52.182;21.156;2023-08-17T06:41:10;12.25;;;8.07;;
16979;SDS011;42288;52.182;21.156;2023-08-17T06:43:36;11.77;;;8.43;;
16979;SDS011;42288;52.182;21.156;2023-08-17T06:46:01;14.88;;;8.13;;
16979;SDS011;42288;52.182;21.156;2023-08-17T06:48:27;11.95;;;7.80;;
16979;SDS011;42288;52.182;21.156;2023-08-17T06:50:53;12.77;;;8.10;;
16979;SDS011;42288;52.182;21.156;2023-08-17T06:53:19;12.88;;;8.55;;
16979;SDS011;42288;52.182;21.156;2023-08-17T06:55:44;13.95;;;8.15;;
16979;SDS011;42288;52.182;21.156;2023-08-17T06:58:10;16.92;;;8.65;;
16979;SDS011;42288;52.182;21.156;2023-08-17T07:00:36;12.35;;;7.53;;
16979;SDS011;42288;52.182;21.156;2023-08-17T07:03:04;11.55;;;7.63;;
16979;SDS011;42288;52.182;21.156;2023-08-17T07:05:29;10.93;;;7.63;;
16979;SDS011;42288;52.182;21.156;2023-08-17T07:07:55;11.98;;;7.07;;
16979;SDS011;42288;52.182;21.156;2023-08-17T07:10:22;9.00;;;7.38;;
16979;SDS011;42288;52.182;21.156;2023-08-17T07:12:48;12.48;;;6.50;;
16979;SDS011;42288;52.182;21.156;2023-08-17T07:15:13;10.95;;;6.53;;
16979;SDS011;42288;52.182;21.156;2023-08-17T07:17:40;12.25;;;6.28;;
16979;SDS011;42288;52.182;21.156;2023-08-17T07:20:06;7.45;;;5.95;;
16979;SDS011;42288;52.182;21.156;2023-08-17T07:22:32;10.73;;;6.55;;
16979;SDS011;42288;52.182;21.156;2023-08-17T07:24:58;7.03;;;5.80;;
16979;SDS011;42288;52.182;21.156;2023-08-17T07:27:24;11.60;;;6.82;;
16979;SDS011;42288;52.182;21.156;2023-08-17T07:29:49;9.48;;;6.70;;
16979;SDS011;42288;52.182;21.156;2023-08-17T07:32:15;10.35;;;6.13;;
16979;SDS011;42288;52.182;21.156;2023-08-17T07:34:41;8.27;;;7.05;;
16979;SDS011;42288;52.182;21.156;2023-08-17T07:37:06;9.02;;;7.05;;
16979;SDS011;42288;52.182;21.156;2023-08-17T07:39:32;9.45;;;6.53;;
16979;SDS011;42288;52.182;21.156;2023-08-17T07:41:58;9.45;;;6.95;;
16979;SDS011;42288;52.182;21.156;2023-08-17T07:44:24;8.27;;;6.63;;
16979;SDS011;42288;52.182;21.156;2023-08-17T07:46:49;14.38;;;6.68;;
16979;SDS011;42288;52.182;21.156;2023-08-17T07:49:15;10.00;;;6.65;;
16979;SDS011;42288;52.182;21.156;2023-08-17T07:51:40;9.65;;;6.80;;
16979;SDS011;42288;52.182;21.156;2023-08-17T07:54:06;12.40;;;7.53;;
16979;SDS011;42288;52.182;21.156;2023-08-17T07:56:32;16.13;;;7.65;;
16979;SDS011;42288;52.182;21.156;2023-08-17T07:58:58;11.60;;;7.55;;
16979;SDS011;42288;52.182;21.156;2023-08-17T08:01:23;10.55;;;6.80;;
16979;SDS011;42288;52.182;21.156;2023-08-17T08:03:49;10.85;;;7.07;;
16979;SDS011;42288;52.182;21.156;2023-08-17T08:06:15;10.07;;;6.70;;
16979;SDS011;42288;52.182;21.156;2023-08-17T08:08:40;7.93;;;6.95;;
16979;SDS011;42288;52.182;21.156;2023-08-17T08:11:06;7.72;;;6.50;;
16979;SDS011;42288;52.182;21.156;2023-08-17T08:13:32;9.70;;;7.65;;
16979;SDS011;42288;52.182;21.156;2023-08-17T08:16:00;9.73;;;6.30;;
16979;SDS011;42288;52.182;21.156;2023-08-17T08:18:25;9.77;;;6.82;;
16979;SDS011;42288;52.182;21.156;2023-08-17T08:20:51;11.73;;;7.22;;
16979;SDS011;42288;52.182;21.156;2023-08-17T08:23:17;9.40;;;6.53;;
16979;SDS011;42288;52.182;21.156;2023-08-17T08:25:42;9.38;;;6.60;;
16979;SDS011;42288;52.182;21.156;2023-08-17T08:28:08;12.90;;;6.97;;
16979;SDS011;42288;52.182;21.156;2023-08-17T08:30:34;10.75;;;6.60;;
16979;SDS011;42288;52.182;21.156;2023-08-17T08:33:00;10.50;;;6.50;;
16979;SDS011;42288;52.182;21.156;2023-08-17T08:35:27;10.68;;;6.70;;
16979;SDS011;42288;52.182;21.156;2023-08-17T08:37:53;9.38;;;6.78;;
16979;SDS011;42288;52.182;21.156;2023-08-17T08:40:20;10.52;;;6.50;;
16979;SDS011;42288;52.182;21.156;2023-08-17T08:42:56;10.85;;;7.05;;
16979;SDS011;42288;52.182;21.156;2023-08-17T08:45:22;11.15;;;6.40;;
16979;SDS011;42288;52.182;21.156;2023-08-17T08:47:48;11.57;;;6.50;;
16979;SDS011;42288;52.182;21.156;2023-08-17T08:50:16;10.23;;;5.93;;
16979;SDS011;42288;52.182;21.156;2023-08-17T08:52:55;9.30;;;6.50;;
16979;SDS011;42288;52.182;21.156;2023-08-17T08:55:26;8.52;;;6.32;;
16979;SDS011;42288;52.182;21.156;2023-08-17T08:57:54;10.68;;;7.07;;
16979;SDS011;42288;52.182;21.156;2023-08-17T09:00:21;10.98;;;6.28;;
16979;SDS011;42288;52.182;21.156;2023-08-17T09:02:48;8.60;;;7.03;;
16979;SDS011;42288;52.182;21.156;2023-08-17T09:05:14;10.52;;;7.10;;
16979;SDS011;42288;52.182;21.156;2023-08-17T09:07:40;9.77;;;6.97;;
16979;SDS011;42288;52.182;21.156;2023-08-17T09:10:08;9.50;;;6.85;;
16979;SDS011;42288;52.182;21.156;2023-08-17T09:12:34;11.75;;;7.32;;
16979;SDS011;42288;52.182;21.156;2023-08-17T09:15:00;9.40;;;6.88;;
16979;SDS011;42288;52.182;21.156;2023-08-17T09:17:26;10.02;;;7.32;;
16979;SDS011;42288;52.182;21.156;2023-08-17T09:19:52;11.95;;;7.10;;
16979;SDS011;42288;52.182;21.156;2023-08-17T09:22:25;11.82;;;7.03;;
16979;SDS011;42288;52.182;21.156;2023-08-17T09:25:03;16.27;;;7.03;;
16979;SDS011;42288;52.182;21.156;2023-08-17T09:27:29;10.80;;;6.40;;
16979;SDS011;42288;52.182;21.156;2023-08-17T09:30:08;8.27;;;6.28;;
16979;SDS011;42288;52.182;21.156;2023-08-17T09:32:34;11.48;;;6.32;;
16979;SDS011;42288;52.182;21.156;2023-08-17T09:35:03;7.93;;;5.82;;
16979;SDS011;42288;52.182;21.156;2023-08-17T09:37:30;9.50;;;6.57;;
16979;SDS011;42288;52.182;21.156;2023-08-17T09:39:56;13.57;;;6.28;;
16979;SDS011;42288;52.182;21.156;2023-08-17T09:42:22;8.18;;;6.07;;
16979;SDS011;42288;52.182;21.156;2023-08-17T09:44:50;8.88;;;5.97;;
16979;SDS011;42288;52.182;21.156;2023-08-17T09:47:20;9.05;;;5.88;;
16979;SDS011;42288;52.182;21.156;2023-08-17T09:49:53;13.25;;;6.30;;
16979;SDS011;42288;52.182;21.156;2023-08-17T09:52:20;10.95;;;6.75;;
16979;SDS011;42288;52.182;21.156;2023-08-17T09:54:46;9.13;;;5.75;;
16979;SDS011;42288;52.182;21.156;2023-08-17T09:57:12;7.18;;;5.70;;
16979;SDS011;42288;52.182;21.156;2023-08-17T09:59:39;8.45;;;4.97;;
16979;SDS011;42288;52.182;21.156;2023-08-17T10:02:05;6.65;;;5.35;;
16979;SDS011;42288;52.182;21.156;2023-08-17T10:04:42;7.05;;;5.30;;
16979;SDS011;42288;52.182;21.156;2023-08-17T10:07:09;7.88;;;5.13;;
16979;SDS011;42288;52.182;21.156;2023-08-17T10:09:43;7.90;;;5.10;;
16979;SDS011;42288;52.182;21.156;2023-08-17T10:12:15;6.47;;;4.80;;
16979;SDS011;42288;52.182;21.156;2023-08-17T10:14:53;7.10;;;4.68;;
16979;SDS011;42288;52.182;21.156;2023-08-17T10:17:22;8.45;;;4.45;;
16979;SDS011;42288;52.182;21.156;2023-08-17T10:19:56;5.65;;;4.38;;
16979;SDS011;42288;52.182;21.156;2023-08-17T10:22:43;6.63;;;4.53;;
16979;SDS011;42288;52.182;21.156;2023-08-17T10:25:28;6.03;;;4.78;;
16979;SDS011;42288;52.182;21.156;2023-08-17T10:27:54;7.97;;;4.30;;
16979;SDS011;42288;52.182;21.156;2023-08-17T10:30:20;4.55;;;3.85;;
16979;SDS011;42288;52.182;21.156;2023-08-17T10:32:45;7.05;;;4.50;;
16979;SDS011;42288;52.182;21.156;2023-08-17T10:35:12;6.78;;;4.40;;
16979;SDS011;42288;52.182;21.156;2023-08-17T10:37:38;6.43;;;4.20;;
16979;SDS011;42288;52.182;21.156;2023-08-17T10:40:05;4.65;;;3.55;;
16979;SDS011;42288;52.182;21.156;2023-08-17T10:42:35;4.93;;;3.08;;
16979;SDS011;42288;52.182;21.156;2023-08-17T10:45:01;5.40;;;3.30;;
16979;SDS011;42288;52.182;21.156;2023-08-17T10:47:48;6.25;;;3.00;;
16979;SDS011;42288;52.182;21.156;2023-08-17T10:50:21;5.60;;;2.88;;
16979;SDS011;42288;52.182;21.156;2023-08-17T10:52:49;4.47;;;2.90;;
16979;SDS011;42288;52.182;21.156;2023-08-17T10:55:16;6.72;;;3.42;;
16979;SDS011;42288;52.182;21.156;2023-08-17T10:57:43;5.18;;;3.10;;
16979;SDS011;42288;52.182;21.156;2023-08-17T11:00:16;5.20;;;3.03;;
16979;SDS011;42288;52.182;21.156;2023-08-17T11:02:52;4.25;;;2.80;;
16979;SDS011;42288;52.182;21.156;2023-08-17T11:05:35;7.57;;;3.38;;
16979;SDS011;42288;52.182;21.156;2023-08-17T11:08:04;5.13;;;3.40;;
16979;SDS011;42288;52.182;21.156;2023-08-17T11:10:31;5.20;;;2.70;;
16979;SDS011;42288;52.182;21.156;2023-08-17T11:12:57;4.55;;;2.88;;
16979;SDS011;42288;52.182;21.156;2023-08-17T11:15:34;5.50;;;3.10;;
16979;SDS011;42288;52.182;21.156;2023-08-17T11:18:02;4.20;;;3.10;;
16979;SDS011;42288;52.182;21.156;2023-08-17T11:20:29;4.68;;;2.80;;
16979;SDS011;42288;52.182;21.156;2023-08-17T11:22:54;4.88;;;3.30;;
16979;SDS011;42288;52.182;21.156;2023-08-17T11:25:20;6.68;;;2.83;;
16979;SDS011;42288;52.182;21.156;2023-08-17T11:27:46;5.15;;;2.85;;
16979;SDS011;42288;52.182;21.156;2023-08-17T11:30:11;3.85;;;2.70;;
16979;SDS011;42288;52.182;21.156;2023-08-17T11:32:37;2.95;;;2.38;;
16979;SDS011;42288;52.182;21.156;2023-08-17T11:35:04;3.65;;;2.38;;
16979;SDS011;42288;52.182;21.156;2023-08-17T11:37:30;5.60;;;2.63;;
16979;SDS011;42288;52.182;21.156;2023-08-17T11:39:55;6.95;;;2.78;;
16979;SDS011;42288;52.182;21.156;2023-08-17T11:42:21;3.40;;;2.60;;
16979;SDS011;42288;52.182;21.156;2023-08-17T11:44:47;6.07;;;3.22;;
16979;SDS011;42288;52.182;21.156;2023-08-17T11:47:13;6.50;;;2.90;;
16979;SDS011;42288;52.182;21.156;2023-08-17T11:49:39;7.32;;;2.95;;
16979;SDS011;42288;52.182;21.156;2023-08-17T11:52:04;3.60;;;2.50;;
16979;SDS011;42288;52.182;21.156;2023-08-17T11:54:32;6.65;;;3.13;;
16979;SDS011;42288;52.182;21.156;2023-08-17T11:56:58;4.55;;;2.80;;
16979;SDS011;42288;52.182;21.156;2023-08-17T11:59:24;5.35;;;2.85;;
16979;SDS011;42288;52.182;21.156;2023-08-17T12:01:49;3.47;;;2.75;;
16979;SDS011;42288;52.182;21.156;2023-08-17T12:04:15;7.85;;;2.88;;
16979;SDS011;42288;52.182;21.156;2023-08-17T12:06:44;4.00;;;2.70;;
16979;SDS011;42288;52.182;21.156;2023-08-17T12:09:12;4.30;;;2.80;;
16979;SDS011;42288;52.182;21.156;2023-08-17T12:11:39;5.70;;;2.70;;
16979;SDS011;42288;52.182;21.156;2023-08-17T12:14:08;4.93;;;2.67;;
16979;SDS011;42288;52.182;21.156;2023-08-17T12:16:44;3.55;;;2.88;;
16979;SDS011;42288;52.182;21.156;2023-08-17T12:19:13;4.85;;;2.55;;
16979;SDS011;42288;52.182;21.156;2023-08-17T12:21:42;5.53;;;2.80;;
16979;SDS011;42288;52.182;21.156;2023-08-17T12:24:08;3.78;;;2.83;;
16979;SDS011;42288;52.182;21.156;2023-08-17T12:26:36;4.50;;;2.47;;
16979;SDS011;42288;52.182;21.156;2023-08-17T12:29:05;5.10;;;2.80;;
16979;SDS011;42288;52.182;21.156;2023-08-17T12:31:32;5.00;;;2.70;;
16979;SDS011;42288;52.182;21.156;2023-08-17T12:33:58;4.25;;;2.35;;
16979;SDS011;42288;52.182;21.156;2023-08-17T12:36:24;4.95;;;2.80;;
16979;SDS011;42288;52.182;21.156;2023-08-17T12:38:49;5.15;;;2.63;;
16979;SDS011;42288;52.182;21.156;2023-08-17T12:41:15;5.90;;;2.88;;
16979;SDS011;42288;52.182;21.156;2023-08-17T12:43:42;3.58;;;2.95;;
16979;SDS011;42288;52.182;21.156;2023-08-17T12:46:08;5.30;;;2.90;;
16979;SDS011;42288;52.182;21.156;2023-08-17T12:48:33;3.63;;;2.72;;
16979;SDS011;42288;52.182;21.156;2023-08-17T12:50:59;5.05;;;3.03;;
16979;SDS011;42288;52.182;21.156;2023-08-17T12:53:24;5.03;;;2.72;;
16979;SDS011;42288;52.182;21.156;2023-08-17T12:55:50;5.57;;;2.75;;
16979;SDS011;42288;52.182;21.156;2023-08-17T12:58:15;4.85;;;2.72;;
16979;SDS011;42288;52.182;21.156;2023-08-17T13:00:41;3.35;;;2.95;;
16979;SDS011;42288;52.182;21.156;2023-08-17T13:03:07;5.47;;;3.17;;
16979;SDS011;42288;52.182;21.156;2023-08-17T13:05:33;5.78;;;3.03;;
16979;SDS011;42288;52.182;21.156;2023-08-17T13:07:58;4.95;;;3.03;;
16979;SDS011;42288;52.182;21.156;2023-08-17T13:10:24;4.45;;;2.63;;
16979;SDS011;42288;52.182;21.156;2023-08-17T13:12:50;5.32;;;3.28;;
16979;SDS011;42288;52.182;21.156;2023-08-17T13:15:19;6.20;;;3.10;;
16979;SDS011;42288;52.182;21.156;2023-08-17T13:17:48;10.13;;;3.63;;
16979;SDS011;42288;52.182;21.156;2023-08-17T13:20:13;5.05;;;2.80;;
16979;SDS011;42288;52.182;21.156;2023-08-17T13:22:39;7.55;;;3.30;;
16979;SDS011;42288;52.182;21.156;2023-08-17T13:25:04;4.68;;;2.88;;
16979;SDS011;42288;52.182;21.156;2023-08-17T13:27:30;6.40;;;3.55;;
16979;SDS011;42288;52.182;21.156;2023-08-17T13:29:56;7.80;;;2.92;;
16979;SDS011;42288;52.182;21.156;2023-08-17T13:32:23;3.72;;;2.70;;
16979;SDS011;42288;52.182;21.156;2023-08-17T13:34:50;3.88;;;2.60;;
16979;SDS011;42288;52.182;21.156;2023-08-17T13:37:16;10.93;;;2.90;;
16979;SDS011;42288;52.182;21.156;2023-08-17T13:39:42;5.03;;;2.40;;
16979;SDS011;42288;52.182;21.156;2023-08-17T13:42:08;4.82;;;2.80;;
16979;SDS011;42288;52.182;21.156;2023-08-17T13:44:34;4.47;;;2.70;;
16979;SDS011;42288;52.182;21.156;2023-08-17T13:46:59;5.05;;;2.90;;
16979;SDS011;42288;52.182;21.156;2023-08-17T13:49:25;4.25;;;2.53;;
16979;SDS011;42288;52.182;21.156;2023-08-17T13:51:52;4.60;;;2.55;;
16979;SDS011;42288;52.182;21.156;2023-08-17T13:54:18;5.43;;;2.80;;
16979;SDS011;42288;52.182;21.156;2023-08-17T13:56:43;5.03;;;2.90;;
16979;SDS011;42288;52.182;21.156;2023-08-17T13:59:09;4.95;;;2.70;;
16979;SDS011;42288;52.182;21.156;2023-08-17T14:01:35;4.65;;;2.67;;
16979;SDS011;42288;52.182;21.156;2023-08-17T14:04:00;6.03;;;2.35;;
16979;SDS011;42288;52.182;21.156;2023-08-17T14:06:28;4.10;;;2.67;;
16979;SDS011;42288;52.182;21.156;2023-08-17T14:08:54;4.03;;;2.70;;
16979;SDS011;42288;52.182;21.156;2023-08-17T14:11:19;4.13;;;2.50;;
16979;SDS011;42288;52.182;21.156;2023-08-17T14:13:45;4.32;;;2.90;;
16979;SDS011;42288;52.182;21.156;2023-08-17T14:16:10;5.20;;;2.70;;
16979;SDS011;42288;52.182;21.156;2023-08-17T14:18:36;13.02;;;2.85;;
16979;SDS011;42288;52.182;21.156;2023-08-17T14:21:02;4.45;;;2.72;;
16979;SDS011;42288;52.182;21.156;2023-08-17T14:23:28;4.68;;;2.60;;
16979;SDS011;42288;52.182;21.156;2023-08-17T14:25:53;5.85;;;2.67;;